createdAt,value
2019-04-26T00:01:58.374Z,55989.45
2019-04-26T00:04:28.713Z,55973.00
2019-04-26T00:06:58.754Z,55957.58
2019-04-26T00:09:34.351Z,55970.95
2019-04-26T00:12:27.755Z,55957.58
2019-04-26T00:15:16.409Z,55934.96
2019-04-26T00:17:49.799Z,55989.45
2019-04-26T00:20:19.729Z,55975.06
2019-04-26T00:22:49.693Z,55964.78
2019-04-26T00:25:19.591Z,55973.00
2019-04-26T00:27:49.847Z,55982.25
2019-04-26T00:30:21.072Z,55969.92
2019-04-26T00:32:51.797Z,55985.34
2019-04-26T00:35:22.404Z,56010.02
2019-04-26T00:37:53.372Z,55963.75
2019-04-26T00:40:23.573Z,55967.86
2019-04-26T00:42:54.408Z,55958.61
2019-04-26T00:45:27.882Z,55983.28
2019-04-26T00:47:59.255Z,55969.92
2019-04-26T00:50:30.755Z,55989.45
2019-04-26T00:53:02.014Z,55981.23
2019-04-26T00:55:33.538Z,55981.23
2019-04-26T00:58:04.699Z,55992.54
2019-04-26T01:00:35.186Z,56003.85
2019-04-26T01:03:05.159Z,55963.75
2019-04-26T01:05:37.453Z,55950.38
2019-04-26T01:08:08.048Z,55967.86
2019-04-26T01:10:38.350Z,55988.43
2019-04-26T01:13:08.643Z,55997.68
2019-04-26T01:15:39.268Z,55987.40
2019-04-26T01:18:09.685Z,55995.62
2019-04-26T01:20:41.661Z,56002.82
2019-04-26T01:23:14.443Z,55981.23
2019-04-26T01:26:02.431Z,56012.07
2019-04-26T01:28:42.842Z,55958.61
2019-04-26T01:31:14.730Z,55975.06
2019-04-26T01:33:46.108Z,56017.21
2019-04-26T01:36:18.242Z,55983.28
2019-04-26T01:38:52.245Z,56000.76
2019-04-26T01:41:33.143Z,56011.05
2019-04-26T01:44:37.863Z,56000.76
2019-04-26T01:47:08.524Z,55993.57
2019-04-26T01:49:39.589Z,55988.43
2019-04-26T01:52:14.827Z,55983.28
2019-04-26T01:54:46.800Z,55999.73
2019-04-26T01:57:17.588Z,56016.19
2019-04-26T01:59:53.380Z,56002.82
2019-04-26T02:02:33.891Z,56014.13
2019-04-26T02:05:07.375Z,55997.68
2019-04-26T02:07:41.413Z,56014.13
2019-04-26T02:10:18.754Z,55997.68
2019-04-26T02:12:50.512Z,55997.68
2019-04-26T02:15:27.161Z,56012.07
2019-04-26T02:17:59.012Z,55994.59
2019-04-26T02:21:27.967Z,56013.10
2019-04-26T02:24:04.418Z,55998.71
2019-04-26T02:26:36.411Z,55978.14
2019-04-26T02:29:11.861Z,55986.37
2019-04-26T02:31:45.106Z,55995.62
2019-04-26T02:34:16.190Z,56011.05
2019-04-26T02:36:57.948Z,56040.86
2019-04-26T02:39:27.449Z,55991.51
2019-04-26T02:42:02.473Z,55979.17
2019-04-26T02:44:43.813Z,56004.87
2019-04-26T02:47:38.472Z,56003.85
2019-04-26T02:50:15.985Z,56001.79
2019-04-26T02:53:30.688Z,55997.68
2019-04-26T02:56:33.284Z,55989.45
2019-04-26T02:59:44.208Z,56003.85
2019-04-26T03:02:26.545Z,56019.27
2019-04-26T03:05:09.041Z,56011.05
2019-04-26T03:08:05.055Z,56033.67
2019-04-26T03:11:18.055Z,55994.59
2019-04-26T03:14:08.987Z,56002.82
2019-04-26T03:16:56.799Z,55998.71
2019-04-26T03:19:43.405Z,55990.48
2019-04-26T03:22:49.395Z,56038.81
2019-04-26T03:26:20.112Z,56001.79
2019-04-26T03:29:17.906Z,56001.79
2019-04-26T03:32:27.428Z,56005.90
2019-04-26T03:35:28.393Z,55995.62
2019-04-26T03:38:17.831Z,55996.65
2019-04-26T03:41:06.106Z,55970.95
2019-04-26T03:43:54.442Z,56004.87
2019-04-26T03:46:59.914Z,55983.28
2019-04-26T03:50:29.292Z,55997.68
2019-04-26T03:53:24.774Z,55999.73
2019-04-26T03:56:39.855Z,55978.14
2019-04-26T03:59:36.804Z,55968.89
2019-04-26T04:02:25.725Z,55978.14
2019-04-26T04:05:40.232Z,55983.28
2019-04-26T04:08:19.763Z,55979.17
2019-04-26T04:11:00.764Z,55991.51
2019-04-26T04:13:53.373Z,55993.57
2019-04-26T04:16:46.714Z,55979.17
2019-04-26T04:20:15.067Z,55975.06
2019-04-26T04:22:51.759Z,55951.41
2019-04-26T04:25:31.117Z,55958.61
2019-04-26T04:28:25.483Z,55964.78
2019-04-26T04:31:16.377Z,55977.11
2019-04-26T04:34:15.457Z,56012.07
2019-04-26T04:36:51.511Z,55978.14
2019-04-26T04:39:59.211Z,55970.95
2019-04-26T04:43:07.876Z,55935.98
2019-04-26T04:46:31.561Z,55992.54
2019-04-26T04:49:36.369Z,55952.44
2019-04-26T04:52:42.674Z,55958.61
2019-04-26T04:55:25.649Z,55948.32
2019-04-26T04:58:21.194Z,55959.63
2019-04-26T05:01:46.289Z,55947.30
2019-04-26T05:05:17.296Z,55967.86
2019-04-26T05:08:18.890Z,55962.72
2019-04-26T05:11:10.284Z,55948.32
2019-04-26T05:13:57.655Z,55956.55
2019-04-26T05:17:19.157Z,55940.10
2019-04-26T05:20:22.558Z,55941.13
2019-04-26T05:24:17.515Z,55954.49
2019-04-26T05:27:36.267Z,55917.48
2019-04-26T05:30:54.854Z,55937.01
2019-04-26T05:34:08.915Z,55970.95
2019-04-26T05:37:14.076Z,55917.48
2019-04-26T05:40:13.947Z,55939.07
2019-04-26T05:43:44.779Z,55948.32
2019-04-26T05:47:24.620Z,55957.58
2019-04-26T05:51:00.581Z,55944.21
2019-04-26T05:54:10.473Z,55931.87
2019-04-26T05:57:44.863Z,55923.65
2019-04-26T06:01:19.852Z,55962.72
2019-04-26T06:04:29.590Z,55919.54
2019-04-26T06:07:37.909Z,55940.10
2019-04-26T06:10:34.539Z,55937.01
2019-04-26T06:14:17.585Z,55921.59
2019-04-26T06:17:36.791Z,55937.01
2019-04-26T06:20:29.748Z,55909.25
2019-04-26T06:23:13.783Z,55942.16
2019-04-26T06:26:08.777Z,55924.68
2019-04-26T06:29:07.508Z,55914.39
2019-04-26T06:32:18.695Z,55859.90
2019-04-26T06:35:11.120Z,55911.31
2019-04-26T06:38:10.758Z,55911.31
2019-04-26T06:41:26.583Z,55930.84
2019-04-26T06:44:05.373Z,55904.11
2019-04-26T06:47:12.495Z,55921.59
2019-04-26T06:50:10.611Z,55931.87
2019-04-26T06:52:58.128Z,55923.65
2019-04-26T06:56:00.821Z,55958.61
2019-04-26T06:59:18.579Z,55934.96
2019-04-26T07:02:14.025Z,55892.80
2019-04-26T07:05:15.844Z,55946.27
2019-04-26T07:08:30.073Z,55928.79
2019-04-26T07:12:07.266Z,55915.42
2019-04-26T07:15:12.297Z,55952.44
2019-04-26T07:18:55.998Z,55935.98
2019-04-26T07:22:36.293Z,55923.65
2019-04-26T07:26:09.194Z,55902.05
2019-04-26T07:29:12.092Z,55924.68
2019-04-26T07:31:57.134Z,55915.42
2019-04-26T07:34:58.388Z,55894.86
2019-04-26T07:38:12.306Z,55905.14
2019-04-26T07:41:22.140Z,55910.28
2019-04-26T07:44:53.230Z,55923.65
2019-04-26T07:48:22.361Z,55903.08
2019-04-26T07:51:43.537Z,55905.14
2019-04-26T07:55:04.475Z,55907.20
2019-04-26T07:58:20.898Z,55898.97
2019-04-26T08:01:17.882Z,55929.82
2019-04-26T08:04:01.483Z,55928.79
2019-04-26T08:06:52.257Z,55922.62
2019-04-26T08:09:27.682Z,55927.76
2019-04-26T08:12:06.106Z,55904.11
2019-04-26T08:14:57.347Z,55921.59
2019-04-26T08:17:47.630Z,55926.73
2019-04-26T08:20:41.128Z,55909.25
2019-04-26T08:23:37.236Z,55944.21
2019-04-26T08:25:50.198Z,55933.93
2019-04-26T08:28:23.565Z,55915.42
2019-04-26T08:30:56.339Z,55908.23
2019-04-26T08:33:35.470Z,55926.73
2019-04-26T08:36:08.721Z,55922.62
2019-04-26T08:38:40.203Z,55919.54
2019-04-26T08:41:11.610Z,55911.31
2019-04-26T08:44:14.555Z,55922.62
2019-04-26T08:47:05.976Z,55913.36
2019-04-26T08:49:47.211Z,55914.39
2019-04-26T08:52:20.012Z,55919.54
2019-04-26T08:54:56.981Z,55925.70
2019-04-26T08:57:33.051Z,55907.20
2019-04-26T09:00:33.199Z,55910.28
2019-04-26T09:03:19.662Z,55923.65
2019-04-26T09:06:07.132Z,55913.36
2019-04-26T09:08:43.606Z,55912.34
2019-04-26T09:11:25.365Z,55905.14
2019-04-26T09:13:50.038Z,55890.75
2019-04-26T09:16:21.938Z,55846.53
2019-04-26T09:18:55.062Z,55917.48
2019-04-26T09:21:39.039Z,55866.07
2019-04-26T09:24:33.122Z,55894.86
2019-04-26T09:27:22.564Z,55912.34
2019-04-26T09:30:06.523Z,55880.46
2019-04-26T09:32:43.970Z,55908.23
2019-04-26T09:35:15.280Z,55880.46
2019-04-26T09:37:46.673Z,55896.91
2019-04-26T09:40:21.608Z,55921.59
2019-04-26T09:43:10.600Z,55926.73
2019-04-26T09:45:51.013Z,55906.17
2019-04-26T09:48:36.788Z,55896.91
2019-04-26T09:51:07.936Z,55901.03
2019-04-26T09:53:39.527Z,55938.04
2019-04-26T09:56:10.654Z,55877.38
2019-04-26T09:58:41.366Z,55903.08
2019-04-26T10:01:12.188Z,55896.91
2019-04-26T10:03:42.845Z,55896.91
2019-04-26T10:06:13.097Z,55898.97
2019-04-26T10:08:46.980Z,55914.39
2019-04-26T10:11:17.031Z,55901.03
2019-04-26T10:13:56.238Z,55901.03
2019-04-26T10:16:42.085Z,55894.86
2019-04-26T10:19:13.106Z,55884.57
2019-04-26T10:21:43.371Z,55854.76
2019-04-26T10:24:14.313Z,55890.75
2019-04-26T10:26:44.860Z,55893.83
2019-04-26T10:29:14.809Z,55887.66
2019-04-26T10:31:47.583Z,55929.82
2019-04-26T10:34:17.067Z,55941.13
2019-04-26T10:36:47.562Z,55939.07
2019-04-26T10:39:19.432Z,55944.21
2019-04-26T10:41:49.774Z,55889.72
2019-04-26T10:44:19.957Z,55913.36
2019-04-26T10:46:55.650Z,55930.84
2019-04-26T10:49:58.212Z,55940.10
2019-04-26T10:52:53.418Z,55940.10
2019-04-26T10:55:30.724Z,55947.30
2019-04-26T10:58:14.155Z,55934.96
2019-04-26T11:00:48.480Z,55929.82
2019-04-26T11:03:17.921Z,55932.90
2019-04-26T11:05:49.354Z,55909.25
2019-04-26T11:08:20.553Z,55900.00
2019-04-26T11:10:51.487Z,55913.36
2019-04-26T11:13:21.377Z,55924.68
2019-04-26T11:15:51.788Z,55911.31
2019-04-26T11:18:27.246Z,55926.73
2019-04-26T11:20:53.885Z,55926.73
2019-04-26T11:23:24.160Z,55935.98
2019-04-26T11:25:54.097Z,55923.65
2019-04-26T11:28:24.688Z,55943.18
2019-04-26T11:30:57.401Z,55947.30
2019-04-26T11:33:27.282Z,55927.76
2019-04-26T11:35:57.648Z,55943.18
2019-04-26T11:38:31.277Z,55946.27
2019-04-26T11:41:06.348Z,55938.04
2019-04-26T11:43:32.437Z,55910.28
2019-04-26T11:46:04.674Z,55931.87
2019-04-26T11:48:34.859Z,55920.56
2019-04-26T11:51:05.511Z,55973.00
2019-04-26T11:53:35.825Z,55921.59
2019-04-26T11:56:06.145Z,55946.27
2019-04-26T11:58:36.098Z,55938.04
2019-04-26T12:01:08.206Z,55946.27
2019-04-26T12:03:41.030Z,55908.23
2019-04-26T12:06:21.363Z,55931.87
2019-04-26T12:08:57.618Z,55952.44
2019-04-26T12:11:34.163Z,55944.21
2019-04-26T12:14:00.848Z,55916.45
2019-04-26T12:16:32.003Z,55927.76
2019-04-26T12:19:02.547Z,55930.84
2019-04-26T12:21:34.054Z,55917.48
2019-04-26T12:24:04.803Z,55938.04
2019-04-26T12:26:42.644Z,55937.01
2019-04-26T12:29:10.580Z,55958.61
2019-04-26T12:31:39.476Z,55915.42
2019-04-26T12:34:09.402Z,55943.18
2019-04-26T12:36:39.445Z,55910.28
2019-04-26T12:39:11.560Z,55954.49
2019-04-26T12:41:41.618Z,55966.83
2019-04-26T12:44:13.019Z,55935.98
2019-04-26T12:47:03.556Z,55931.87
2019-04-26T12:49:35.416Z,55931.87
2019-04-26T12:52:05.989Z,55922.62
2019-04-26T12:54:38.997Z,55911.31
2019-04-26T12:57:07.836Z,55886.63
2019-04-26T12:59:44.471Z,55950.38
2019-04-26T13:02:10.559Z,55911.31
2019-04-26T13:04:44.408Z,55918.50
2019-04-26T13:07:23.411Z,55946.27
2019-04-26T13:10:07.030Z,55938.04
2019-04-26T13:12:46.962Z,55921.59
2019-04-26T13:16:21.833Z,55914.39
2019-04-26T13:18:51.075Z,55915.42
2019-04-26T13:21:21.011Z,55905.14
2019-04-26T13:23:51.256Z,55968.89
2019-04-26T13:26:21.181Z,55914.39
2019-04-26T13:28:52.617Z,55940.10
2019-04-26T13:31:23.028Z,55954.49
2019-04-26T13:33:53.227Z,55962.72
2019-04-26T13:36:25.272Z,55958.61
2019-04-26T13:38:55.901Z,55960.66
2019-04-26T13:41:27.962Z,55949.35
2019-04-26T13:44:00.930Z,55944.21
2019-04-26T13:46:57.964Z,55943.18
2019-04-26T13:52:44.635Z,55929.82
2019-04-26T13:55:15.456Z,55925.70
2019-04-26T13:57:46.137Z,55944.21
2019-04-26T14:00:22.724Z,55968.89
2019-04-26T14:02:52.657Z,55942.16
2019-04-26T14:05:23.027Z,55958.61
2019-04-26T14:07:53.573Z,55945.24
2019-04-26T14:10:23.996Z,55949.35
2019-04-26T14:12:54.511Z,55959.63
2019-04-26T14:15:24.501Z,55956.55
2019-04-26T14:17:54.539Z,55911.31
2019-04-26T14:20:26.612Z,55962.72
2019-04-26T14:23:05.034Z,55944.21
2019-04-26T14:25:55.512Z,55963.75
2019-04-26T14:28:25.354Z,55969.92
2019-04-26T14:30:55.943Z,55962.72
2019-04-26T14:33:30.396Z,55958.61
2019-04-26T14:35:58.896Z,55950.38
2019-04-26T14:38:35.665Z,55992.54
2019-04-26T14:41:04.187Z,55950.38
2019-04-26T14:43:40.461Z,55939.07
2019-04-26T14:46:06.062Z,55968.89
2019-04-26T14:48:40.183Z,55971.97
2019-04-26T14:51:12.014Z,55945.24
2019-04-26T14:53:40.340Z,55960.66
2019-04-26T14:56:10.590Z,55955.52
2019-04-26T14:58:42.322Z,55992.54
2019-04-26T15:01:18.671Z,55990.48
2019-04-26T15:04:07.518Z,55952.44
2019-04-26T15:06:59.507Z,55959.63
2019-04-26T15:09:34.143Z,55957.58
2019-04-26T15:12:03.567Z,55994.59
2019-04-26T15:14:33.990Z,55975.06
2019-04-26T15:17:04.257Z,55962.72
2019-04-26T15:19:35.279Z,55954.49
2019-04-26T15:22:10.423Z,55970.95
2019-04-26T15:24:38.682Z,55977.11
2019-04-26T15:27:09.016Z,55959.63
2019-04-26T15:29:38.945Z,55985.34
2019-04-26T15:32:09.174Z,55979.17
2019-04-26T15:34:39.728Z,55981.23
2019-04-26T15:37:09.662Z,55966.83
2019-04-26T15:39:59.866Z,55983.28
2019-04-26T15:42:58.980Z,55971.97
2019-04-26T15:45:46.442Z,55983.28
2019-04-26T15:48:50.369Z,56001.79
2019-04-26T15:51:24.407Z,55973.00
2019-04-26T15:53:54.717Z,55964.78
2019-04-26T15:56:24.622Z,55995.62
2019-04-26T15:58:54.845Z,55991.51
2019-04-26T16:01:25.782Z,55988.43
2019-04-26T16:03:56.422Z,55978.14
2019-04-26T16:06:27.030Z,56004.87
2019-04-26T16:08:57.577Z,55997.68
2019-04-26T16:11:28.599Z,55975.06
2019-04-26T16:13:58.845Z,55971.97
2019-04-26T16:16:30.224Z,55997.68
2019-04-26T16:19:01.042Z,55982.25
2019-04-26T16:21:32.337Z,55958.61
2019-04-26T16:24:02.886Z,55977.11
2019-04-26T16:26:33.087Z,55991.51
2019-04-26T16:29:24.145Z,55992.54
2019-04-26T16:32:03.511Z,56015.16
2019-04-26T16:34:33.767Z,55990.48
2019-04-26T16:37:03.683Z,55977.11
2019-04-26T16:39:38.890Z,55971.97
2019-04-26T16:42:07.602Z,55990.48
2019-04-26T16:44:38.044Z,55962.72
2019-04-26T16:47:08.262Z,56005.90
2019-04-26T16:49:42.058Z,55999.73
2019-04-26T16:52:10.466Z,55978.14
2019-04-26T16:54:40.617Z,55993.57
2019-04-26T16:57:12.508Z,56012.07
2019-04-26T16:59:49.041Z,55979.17
2019-04-26T17:02:16.138Z,55979.17
2019-04-26T17:04:46.432Z,56003.85
2019-04-26T17:07:21.910Z,55973.00
2019-04-26T17:09:57.664Z,55966.83
2019-04-26T17:12:20.372Z,55997.68
2019-04-26T17:14:50.570Z,55985.34
2019-04-26T17:17:22.290Z,56006.93
2019-04-26T17:19:52.426Z,55959.63
2019-04-26T17:22:44.380Z,55983.28
2019-04-26T17:25:24.454Z,55986.37
2019-04-26T17:27:52.935Z,55998.71
2019-04-26T17:30:25.173Z,55992.54
2019-04-26T17:32:55.503Z,55964.78
2019-04-26T17:35:25.902Z,55987.40
2019-04-26T17:37:57.332Z,56003.85
2019-04-26T17:40:30.247Z,55997.68
2019-04-26T17:43:00.734Z,55997.68
2019-04-26T17:45:30.968Z,55971.97
2019-04-26T17:48:01.971Z,55975.06
2019-04-26T17:50:35.395Z,55966.83
2019-04-26T17:53:10.755Z,55997.68
2019-04-26T17:55:41.344Z,55987.40
2019-04-26T17:58:14.943Z,55977.11
2019-04-26T18:00:46.047Z,55980.20
2019-04-26T18:03:15.671Z,56008.99
2019-04-26T18:05:56.819Z,55962.72
2019-04-26T18:08:33.792Z,56036.75
2019-04-26T18:10:51.361Z,55970.95
2019-04-26T18:13:21.091Z,55985.34
2019-04-26T18:15:52.744Z,56002.82
2019-04-26T18:18:40.763Z,55981.23
2019-04-26T18:21:29.226Z,55995.62
2019-04-26T18:23:59.301Z,55985.34
2019-04-26T18:26:30.018Z,55983.28
2019-04-26T18:29:00.300Z,56004.87
2019-04-26T18:31:30.979Z,55992.54
2019-04-26T18:34:01.831Z,55985.34
2019-04-26T18:36:33.210Z,55985.34
2019-04-26T18:39:03.896Z,56019.27
2019-04-26T18:41:34.269Z,55982.25
2019-04-26T18:44:04.361Z,55999.73
2019-04-26T18:46:46.520Z,55975.06
2019-04-26T18:49:18.267Z,55964.78
2019-04-26T18:51:48.292Z,56015.16
2019-04-26T18:54:38.026Z,55980.20
2019-04-26T18:57:09.563Z,56012.07
2019-04-26T18:59:40.417Z,55984.31
2019-04-26T19:02:29.610Z,55991.51
2019-04-26T19:04:59.876Z,56021.33
2019-04-26T19:07:32.212Z,55981.23
2019-04-26T19:10:05.140Z,55985.34
2019-04-26T19:12:34.199Z,56016.19
2019-04-26T19:15:36.989Z,55995.62
2019-04-26T19:18:11.688Z,55998.71
2019-04-26T19:20:46.468Z,55987.40
2019-04-26T19:23:16.386Z,55979.17
2019-04-26T19:25:46.621Z,55985.34
2019-04-26T19:28:18.288Z,55981.23
2019-04-26T19:30:51.068Z,56019.27
2019-04-26T19:33:21.573Z,55987.40
2019-04-26T19:35:52.050Z,55981.23
2019-04-26T19:38:21.980Z,55999.73
2019-04-26T19:40:52.203Z,55975.06
2019-04-26T19:43:30.162Z,55980.20
2019-04-26T19:46:09.995Z,56010.02
2019-04-26T19:48:56.565Z,55954.49
2019-04-26T19:51:43.624Z,55997.68
2019-04-26T19:54:21.461Z,56014.13
2019-04-26T19:57:01.074Z,55993.57
2019-04-26T19:59:34.491Z,56005.90
2019-04-26T20:02:03.638Z,55970.95
2019-04-26T20:04:34.279Z,55990.48
2019-04-26T20:07:04.288Z,55984.31
2019-04-26T20:09:34.565Z,55952.44
2019-04-26T20:12:04.492Z,56005.90
2019-04-26T20:14:44.926Z,55981.23
2019-04-26T20:17:06.589Z,55991.51
2019-04-26T20:19:37.609Z,56007.96
2019-04-26T20:22:07.818Z,56001.79
2019-04-26T20:24:38.367Z,56002.82
2019-04-26T20:27:08.279Z,55995.62
2019-04-26T20:29:40.698Z,55979.17
2019-04-26T20:32:24.127Z,55973.00
2019-04-26T20:35:20.010Z,56007.96
2019-04-26T20:37:49.805Z,55965.80
2019-04-26T20:40:23.223Z,55968.89
2019-04-26T20:42:53.292Z,55991.51
2019-04-26T20:45:23.082Z,55992.54
2019-04-26T20:47:55.571Z,56034.70
2019-04-26T20:50:28.519Z,55966.83
2019-04-26T20:53:00.678Z,56004.87
2019-04-26T20:55:30.392Z,55971.97
2019-04-26T20:58:06.988Z,55963.75
2019-04-26T21:00:36.521Z,56014.13
2019-04-26T21:03:06.187Z,55973.00
2019-04-26T21:05:45.848Z,55948.32
2019-04-26T21:08:08.573Z,55968.89
2019-04-26T21:10:38.732Z,55994.59
2019-04-26T21:13:08.658Z,55958.61
2019-04-26T21:15:38.633Z,55975.06
2019-04-26T21:18:08.539Z,55970.95
2019-04-26T21:20:38.456Z,55983.28
2019-04-26T21:23:08.323Z,55962.72
2019-04-26T21:25:45.636Z,55945.24
2019-04-26T21:28:22.166Z,55992.54
2019-04-26T21:31:03.446Z,55955.52
2019-04-26T21:33:40.407Z,55987.40
2019-04-26T21:36:20.901Z,55986.37
2019-04-26T21:39:05.855Z,55997.68
2019-04-26T21:41:33.861Z,55970.95
2019-04-26T21:44:07.563Z,55962.72
2019-04-26T21:46:35.727Z,55984.31
2019-04-26T21:49:05.665Z,55976.09
2019-04-26T21:51:35.990Z,55946.27
2019-04-26T21:54:05.934Z,55964.78
2019-04-26T21:56:35.805Z,55978.14
2019-04-26T21:59:06.311Z,55960.66
2019-04-26T22:01:37.028Z,55987.40
2019-04-26T22:04:07.024Z,55990.48
2019-04-26T22:06:37.014Z,55991.51
2019-04-26T22:09:20.515Z,55981.23
2019-04-26T22:11:53.943Z,55995.62
2019-04-26T22:14:25.981Z,55973.00
2019-04-26T22:17:09.559Z,56001.79
2019-04-26T22:19:56.684Z,55949.35
2019-04-26T22:22:42.407Z,55973.00
2019-04-26T22:25:13.143Z,55976.09
2019-04-26T22:27:43.658Z,55975.06
2019-04-26T22:30:22.677Z,55975.06
2019-04-26T22:32:55.065Z,55988.43
2019-04-26T22:35:22.107Z,55975.06
2019-04-26T22:37:53.757Z,55985.34
2019-04-26T22:40:23.698Z,55978.14
2019-04-26T22:42:59.922Z,56001.79
2019-04-26T22:45:44.098Z,55987.40
2019-04-26T22:48:31.364Z,55973.00
2019-04-26T22:51:04.403Z,55959.63
2019-04-26T22:53:32.932Z,55946.27
2019-04-26T22:56:04.912Z,55960.66
2019-04-26T22:58:34.561Z,55988.43
2019-04-26T23:01:06.355Z,55977.11
2019-04-26T23:03:40.900Z,56008.99
2019-04-26T23:06:11.582Z,55988.43
2019-04-26T23:08:40.211Z,55980.20
2019-04-26T23:11:10.735Z,55966.83
2019-04-26T23:13:57.266Z,55931.87
2019-04-26T23:16:40.451Z,55942.16
2019-04-26T23:19:24.963Z,55975.06
2019-04-26T23:21:56.190Z,55981.23
2019-04-26T23:24:26.458Z,55973.00
2019-04-26T23:26:56.375Z,55993.57
2019-04-26T23:29:26.257Z,55984.31
2019-04-26T23:31:56.422Z,55957.58
2019-04-26T23:34:26.267Z,55974.03
2019-04-26T23:36:56.117Z,55939.07
2019-04-26T23:39:26.011Z,55965.80
2019-04-26T23:41:56.167Z,55959.63
2019-04-26T23:44:26.076Z,55970.95
2019-04-26T23:47:01.343Z,55991.51
2019-04-26T23:49:28.079Z,55947.30
2019-04-26T23:51:57.954Z,55960.66
2019-04-26T23:54:28.171Z,55939.07
2019-04-26T23:56:59.426Z,55965.80
2019-04-26T23:59:29.288Z,55958.61
